Terminal Aerodrome Forecast
Issued by NWS

Home | Current Version | Previous Version | Text Only | Print | Product List | Glossary Off
Versions: 1 2 3 4 5 6 7 8 9 10 11 12 13 14

000
FTUS43 KICT 192300
TAFHUT
TAF
KHUT 192320Z 2000/2024 18018G26KT P6SM BKN250
     FM200200 16013KT P6SM BKN200
     FM201500 18016G23KT P6SM SCT060 BKN150=

USA.gov is the U.S. government's official web portal to all federal, state and local government web resources and services.